Lake Windsor, Wisconsin
Current Conditions -  °F | °C
As of 10:38 PM on Friday 19 Dec 2014 (Local Time) from KMSN Reporting Station
Overcast Overcast  
Wind Chill: 19°   Ceiling: 1400
Heat Index: 25°   Visibility: 7mi
Dew Point: 21°   Wind: 5mph
Humidity: 85%   Direction: 180°S
Pressure: 30.25"   Gusts: NA
Location:  43.2117°N, 89.3436°W
Report Text: KMSN 200438Z 18004KT 7SM OVC014 M04/M06 A3025 RMK AO2 T10391061
Loading
Personal Weather Stations






























Interactive Weather Map New forecast layout! Learn more

10-Day Weather Forecast

Advertisements
Track Severe Weather on mobile